sensor_id;sensor_type;location;lat;lon;timestamp;temperature;humidity
12460;DHT22;6295;49.452;8.466;2024-02-14T12:14:23;10.00;99.90
12460;DHT22;6295;49.452;8.466;2024-02-14T12:18:28;10.00;99.90
12460;DHT22;6295;49.452;8.466;2024-02-14T12:22:32;10.10;99.90
12460;DHT22;6295;49.452;8.466;2024-02-14T12:26:37;10.20;99.90
12460;DHT22;6295;49.452;8.466;2024-02-14T12:30:48;10.30;99.90
12460;DHT22;6295;49.452;8.466;2024-02-14T12:34:56;10.30;99.90
12460;DHT22;6295;49.452;8.466;2024-02-14T12:39:02;10.40;99.90
12460;DHT22;6295;49.452;8.466;2024-02-14T12:47:12;10.40;99.90
12460;DHT22;6295;49.452;8.466;2024-02-14T12:51:16;10.50;99.90
12460;DHT22;6295;49.452;8.466;2024-02-14T12:55:21;10.60;99.90
12460;DHT22;6295;49.452;8.466;2024-02-14T12:59:24;10.70;99.90
12460;DHT22;6295;49.452;8.466;2024-02-14T13:03:30;10.70;99.90
12460;DHT22;6295;49.452;8.466;2024-02-14T13:07:35;10.80;99.90
12460;DHT22;6295;49.452;8.466;2024-02-14T13:11:39;10.90;99.90
12460;DHT22;6295;49.452;8.466;2024-02-14T13:15:43;10.90;99.90
12460;DHT22;6295;49.452;8.466;2024-02-14T13:19:47;11.00;99.90
12460;DHT22;6295;49.452;8.466;2024-02-14T13:23:53;11.10;99.90
12460;DHT22;6295;49.452;8.466;2024-02-14T13:27:57;11.10;99.90
12460;DHT22;6295;49.452;8.466;2024-02-14T13:31:59;11.10;99.90
12460;DHT22;6295;49.452;8.466;2024-02-14T13:36:04;11.10;99.90
12460;DHT22;6295;49.452;8.466;2024-02-14T13:40:08;11.20;99.90
12460;DHT22;6295;49.452;8.466;2024-02-14T13:44:10;11.20;99.90
12460;DHT22;6295;49.452;8.466;2024-02-14T13:48:13;11.20;99.90
12460;DHT22;6295;49.452;8.466;2024-02-14T13:52:17;11.20;99.90
12460;DHT22;6295;49.452;8.466;2024-02-14T13:56:20;11.20;99.90
12460;DHT22;6295;49.452;8.466;2024-02-14T14:00:23;11.20;99.90
12460;DHT22;6295;49.452;8.466;2024-02-14T14:04:25;11.20;99.90
12460;DHT22;6295;49.452;8.466;2024-02-14T14:08:29;11.30;99.90
12460;DHT22;6295;49.452;8.466;2024-02-14T14:12:31;11.30;99.90
12460;DHT22;6295;49.452;8.466;2024-02-14T14:20:35;11.40;99.90
12460;DHT22;6295;49.452;8.466;2024-02-14T14:24:39;11.40;99.90
12460;DHT22;6295;49.452;8.466;2024-02-14T14:32:48;11.40;99.90
12460;DHT22;6295;49.452;8.466;2024-02-14T14:36:51;11.40;99.90
12460;DHT22;6295;49.452;8.466;2024-02-14T14:40:57;11.40;99.90
12460;DHT22;6295;49.452;8.466;2024-02-14T14:45:00;11.40;99.90
12460;DHT22;6295;49.452;8.466;2024-02-14T14:57:12;11.30;99.90
12460;DHT22;6295;49.452;8.466;2024-02-14T15:01:17;11.30;99.90
12460;DHT22;6295;49.452;8.466;2024-02-14T15:05:20;11.30;99.90
12460;DHT22;6295;49.452;8.466;2024-02-14T15:13:30;11.20;99.90
12460;DHT22;6295;49.452;8.466;2024-02-14T15:17:32;11.20;99.90
12460;DHT22;6295;49.452;8.466;2024-02-14T15:25:37;11.20;99.90
12460;DHT22;6295;49.452;8.466;2024-02-14T15:29:41;11.10;99.90
12460;DHT22;6295;49.452;8.466;2024-02-14T15:38:04;11.10;99.90
12460;DHT22;6295;49.452;8.466;2024-02-14T15:42:07;11.10;99.90
12460;DHT22;6295;49.452;8.466;2024-02-14T15:46:12;11.10;99.90
12460;DHT22;6295;49.452;8.466;2024-02-14T15:50:14;11.10;99.90
